Impacts METAR Board
IDs:

KDEN - Denver Intl, CO, US

Updated at: 1700 UTC 24 Sep 2018
Potential Impact None Slight Moderate High
Time 24/05Z 24/06Z 24/07Z 24/08Z 24/09Z 24/10Z 24/11Z 24/12Z 24/13Z 24/14Z 24/15Z 24/16Z 24/17Z
Temp66 64 65 63 62 65 62 59 56 55 57 63 66
Dewpt24 28 30 29 29 29 35 38 40 40 41 40 40
Altim29.89 29.90 29.88 29.88 29.89 29.90 29.94 29.98 30.00 30.00 30.01 30.02 30.01
VIS10 10 10 10 10 10 10 10 10 10 10 10 10
CIG-- -- -- 150 150 150 150 250 250 150 140 130 140
CoverSCTCLRSCTBKNBKNBKNBKNBKNBKNBKNBKNBKNBKN
FltCatVFRVFRVFRVFRVFRVFRVFRVFRVFRVFRVFRVFRVFR
WX--------------------------
WDir140220240230270230305060140170170210
WSpd5 9 10 11 9 8 12 8 7 7 10 9 8
WGst-- -- -- -- -- -- 20 -- -- -- -- -- --
Raw hourly METARs
KDEN 240453Z 14005KT 10SM SCT150 19/M04 A2989 RMK AO2 SLP035 T01891044
KDEN 240553Z 22009KT 10SM CLR 18/M02 A2990 RMK AO2 SLP038 T01781022 10272 20167 55003
KDEN 240653Z 24010KT 10SM SCT150 18/M01 A2988 RMK AO2 SLP030 T01831011 403110133
KDEN 240753Z 23011KT 10SM BKN150 BKN220 17/M02 A2988 RMK AO2 SLP033 T01721017
KDEN 240853Z 27009KT 10SM BKN150 BKN220 17/M02 A2989 RMK AO2 SLP035 T01671017 55002
KDEN 240953Z 23008KT 10SM FEW120 BKN150 18/M02 A2990 RMK AO2 SLP034 T01831017
KDEN 241053Z 03012G20KT 10SM SCT120 BKN150 BKN250 17/02 A2994 RMK AO2 PK WND 01027/1012 WSHFT 1009 SLP053 FROPA T01670017
KDEN 241153Z 05008KT 10SM FEW120 SCT150 BKN250 15/03 A2998 RMK AO2 SLP074 T01500033 10200 20150 53025
KDEN 241253Z 06007KT 10SM FEW120 SCT150 BKN250 13/04 A3000 RMK AO2 SLP088 T01330044
KDEN 241353Z 14007KT 10SM SCT120 BKN150 BKN250 13/04 A3000 RMK AO2 SLP094 T01280044
KDEN 241453Z 17010KT 10SM FEW100 BKN140 BKN220 14/05 A3001 RMK AO2 SLP095 T01390050 51009
KDEN 241553Z 17009KT 10SM FEW100 BKN130 BKN220 17/04 A3002 RMK AO2 SLP096 T01720044
KDEN 241653Z 21008KT 10SM SCT110 BKN140 BKN220 19/04 A3001 RMK AO2 SLP093 VIRGA NW-N T01890044



Page loaded:  17:38 UTC  |   10:38 AM Pacific  |   11:38 AM Mountain  |   12:38 PM Central  |   01:38 PM Eastern

 

ADVISORIES

FORECASTS

FORECASTS

OBSERVATIONS

USER TOOLS

ABOUT US